Time;durP1;ratioP1;P1;durP2;ratioP2;P2;SDS_P1;SDS_P2;PMS_P1;PMS_P2;Temp;Humidity;BMP_temperature;BMP_pressure;BME280_temperature;BME280_humidity;BME280_pressure;Samples;Min_cycle;Max_cycle;Signal;HPM_P1;HPM_P2
2021/04/03 18:46:44;;;;;;;9.77;3.13;;;;;;;;;;5035037;27;312976;-47
2021/04/03 18:52:52;;;;;;;7.72;2.60;;;;;;;21.03;28.50;103082.34;5142206;27;20351;-53
2021/04/03 18:55:19;;;;;;;10.23;2.70;;;;;;;21.43;26.87;103081.53;5045290;28;379958;-49
2021/04/03 19:02:41;;;;;;;5.85;2.58;;;;;;;19.98;28.85;103085.44;5073255;27;20366;-59
2021/04/03 19:05:09;;;;;;;10.18;3.30;;;;;;;19.39;29.80;103092.84;5047334;28;20048;-59
2021/04/03 19:07:35;;;;;;;11.38;2.90;;;;;;;19.05;30.29;103102.09;5044283;28;20468;-59
2021/04/03 19:10:02;;;;;;;13.57;3.50;;;;;;;18.78;30.37;103104.72;5039399;28;20065;-58
2021/04/03 19:12:29;;;;;;;9.02;3.00;;;;;;;18.63;31.00;103107.88;5035580;28;20037;-59
2021/04/03 19:14:56;;;;;;;11.52;3.17;;;;;;;18.58;31.05;103104.44;5037908;28;20052;-59
2021/04/03 19:17:24;;;;;;;9.98;3.30;;;;;;;18.46;31.07;103097.56;5041199;28;20057;-59
2021/04/03 19:19:51;;;;;;;10.15;3.08;;;;;;;18.39;31.38;103102.28;5043154;28;20053;-59
2021/04/03 19:22:18;;;;;;;9.80;2.90;;;;;;;18.37;31.42;103093.34;5039952;28;20091;-59
2021/04/03 19:24:48;;;;;;;10.10;2.92;;;;;;;18.27;31.26;103098.13;5043409;28;20045;-59
2021/04/03 19:27:14;;;;;;;6.93;2.88;;;;;;;18.23;31.16;103096.41;5048837;28;20041;-59
2021/04/03 19:29:40;;;;;;;9.95;2.75;;;;;;;18.18;31.71;103105.59;5043644;28;20041;-59
2021/04/03 19:32:08;;;;;;;8.20;3.38;;;;;;;18.15;31.76;103101.16;5040935;28;20041;-59
2021/04/03 19:34:34;;;;;;;10.77;3.28;;;;;;;18.10;31.17;103103.13;5042485;28;20052;-59
2021/04/03 19:37:02;;;;;;;8.50;2.85;;;;;;;18.12;31.93;103106.66;5034390;28;20107;-58
2021/04/03 19:39:30;;;;;;;9.40;2.85;;;;;;;18.14;32.04;103106.63;5038644;28;20041;-60
2021/04/03 19:42:00;;;;;;;7.43;2.95;;;;;;;18.13;31.75;103103.00;5041283;28;20045;-60
2021/04/03 19:44:29;;;;;;;6.70;2.83;;;;;;;18.07;31.68;103098.66;5045219;28;20072;-59
2021/04/03 19:47:00;;;;;;;10.98;3.22;;;;;;;18.10;32.05;103098.59;5044634;28;20072;-60
2021/04/03 19:49:27;;;;;;;8.85;2.97;;;;;;;18.04;31.21;103104.16;5049977;28;20076;-60
2021/04/03 19:51:53;;;;;;;9.90;3.60;;;;;;;18.02;31.68;103099.75;5012570;28;20049;-59
2021/04/03 19:54:21;;;;;;;10.50;3.60;;;;;;;17.97;31.53;103097.16;5029909;28;378639;-59
2021/04/03 19:56:48;;;;;;;8.07;3.22;;;;;;;18.00;32.01;103101.59;5045724;28;20061;-60
2021/04/03 19:59:15;;;;;;;9.77;2.97;;;;;;;18.02;31.85;103097.91;5041715;28;20108;-60
2021/04/03 20:01:42;;;;;;;9.77;3.50;;;;;;;18.03;31.51;103096.09;5045584;28;20488;-59
2021/04/03 20:05:13;;;;;;;10.90;3.93;;;;;;;17.97;32.11;103093.56;4982056;27;524650;-57
2021/04/03 20:07:41;;;;;;;12.52;3.72;;;;;;;17.95;32.05;103098.13;5018825;28;20593;-58
2021/04/03 20:10:08;;;;;;;9.50;3.22;;;;;;;17.98;32.11;103096.25;5035644;28;20037;-59
2021/04/03 20:12:35;;;;;;;7.90;2.95;;;;;;;17.98;32.20;103103.44;5064186;28;20041;-58
2021/04/03 20:15:02;;;;;;;10.32;3.13;;;;;;;18.00;32.26;103104.31;5059497;28;20048;-59
2021/04/03 20:17:31;;;;;;;10.85;3.35;;;;;;;17.95;31.70;103108.94;5054759;28;20080;-57
2021/04/03 20:19:58;;;;;;;11.52;3.03;;;;;;;17.90;31.70;103111.75;5058738;28;20048;-59
2021/04/03 20:22:25;;;;;;;14.55;3.83;;;;;;;17.84;31.24;103117.28;5041281;28;20100;-58
2021/04/03 20:24:54;;;;;;;10.45;2.92;;;;;;;17.78;31.37;103106.66;5046852;28;20159;-59
2021/04/03 20:27:21;;;;;;;10.75;2.88;;;;;;;17.74;31.04;103109.44;5044087;28;20034;-58
2021/04/03 20:29:48;;;;;;;9.60;2.97;;;;;;;17.68;30.87;103109.59;5038292;28;20037;-58
2021/04/03 20:32:15;;;;;;;11.38;3.30;;;;;;;17.63;30.79;103107.94;5038033;28;20069;-58
2021/04/03 20:34:42;;;;;;;9.30;2.88;;;;;;;17.64;31.08;103105.22;5034117;28;20148;-58
2021/04/03 20:37:09;;;;;;;8.55;3.35;;;;;;;17.59;31.10;103109.84;5043159;28;20042;-58
2021/04/03 20:39:37;;;;;;;9.40;3.42;;;;;;;17.59;30.69;103107.13;5038303;28;20029;-59
2021/04/03 20:42:07;;;;;;;9.35;3.28;;;;;;;17.63;31.50;103098.03;5044688;28;20495;-59
2021/04/03 20:44:34;;;;;;;11.18;3.60;;;;;;;17.63;31.16;103097.16;5040610;28;20033;-59
2021/04/03 20:47:00;;;;;;;9.45;3.22;;;;;;;17.57;31.15;103086.50;5034162;28;20030;-58
2021/04/03 20:49:27;;;;;;;10.27;3.28;;;;;;;17.57;31.20;103100.91;5038921;28;20034;-58
2021/04/03 20:51:54;;;;;;;11.98;3.65;;;;;;;17.59;31.60;103090.03;5035437;28;20315;-58
2021/04/03 20:54:20;;;;;;;10.32;3.05;;;;;;;17.60;31.49;103091.81;5046479;28;20037;-59
2021/04/03 20:56:48;;;;;;;10.65;3.10;;;;;;;17.57;31.58;103091.91;5044702;28;20041;-57
2021/04/03 20:59:15;;;;;;;8.30;3.05;;;;;;;17.61;31.73;103085.50;5045452;28;20045;-59
2021/04/03 21:01:42;;;;;;;11.20;3.40;;;;;;;17.65;31.66;103087.19;5034877;28;20091;-59
2021/04/03 21:04:08;;;;;;;8.80;3.25;;;;;;;17.63;31.58;103081.81;5045184;28;20047;-59
2021/04/03 21:06:39;;;;;;;6.57;2.78;;;;;;;17.62;31.89;103079.16;5053341;28;20124;-58
2021/04/03 21:09:06;;;;;;;8.18;3.35;;;;;;;17.62;31.72;103087.25;5032587;28;20041;-59
2021/04/03 21:11:33;;;;;;;9.48;2.90;;;;;;;17.65;31.50;103077.25;5036322;28;20076;-58
2021/04/03 21:14:03;;;;;;;9.13;3.03;;;;;;;17.64;31.98;103082.69;5037693;28;20047;-59
2021/04/03 21:16:29;;;;;;;11.32;3.60;;;;;;;17.61;32.04;103081.00;5027636;28;20033;-59
2021/04/03 21:18:56;;;;;;;9.18;3.00;;;;;;;17.61;31.97;103077.41;5020177;28;20476;-59
2021/04/03 21:21:23;;;;;;;9.63;3.38;;;;;;;17.61;32.07;103075.59;5028378;28;20430;-58
2021/04/03 21:23:51;;;;;;;6.05;2.63;;;;;;;17.59;31.84;103073.84;5039531;28;20036;-58
2021/04/03 21:26:18;;;;;;;9.77;3.20;;;;;;;17.62;32.17;103082.78;5042448;28;20052;-56
2021/04/03 21:28:44;;;;;;;8.82;3.45;;;;;;;17.63;32.15;103081.81;5026974;28;20132;-58
2021/04/03 21:31:11;;;;;;;12.05;3.30;;;;;;;17.63;31.83;103084.53;5040166;28;20038;-58
2021/04/03 21:33:38;;;;;;;10.98;3.10;;;;;;;17.58;31.85;103077.47;5025335;28;20049;-58
2021/04/03 21:36:05;;;;;;;8.13;3.10;;;;;;;17.55;32.21;103081.13;5023721;28;20079;-59
2021/04/03 21:38:32;;;;;;;7.50;3.10;;;;;;;17.58;32.20;103080.19;5025625;28;20041;-59
2021/04/03 21:40:59;;;;;;;9.23;2.85;;;;;;;17.58;32.21;103080.19;5033024;28;20061;-58
2021/04/03 21:43:26;;;;;;;10.32;3.00;;;;;;;17.62;32.21;103076.47;5023560;28;20029;-59
2021/04/03 21:45:52;;;;;;;10.00;2.95;;;;;;;17.61;32.41;103074.72;5024868;28;20086;-48
2021/04/03 21:48:20;;;;;;;8.38;3.45;;;;;;;17.58;32.40;103075.66;4993458;28;20044;-47
2021/04/03 21:50:46;;;;;;;8.52;3.05;;;;;;;17.59;32.37;103072.06;5014885;28;20129;-47
2021/04/03 21:53:12;;;;;;;10.05;3.03;;;;;;;17.64;32.69;103066.50;5015671;28;20088;-47
2021/04/03 21:55:39;;;;;;;11.52;3.25;;;;;;;17.67;32.63;103070.03;5012063;28;20539;-50
2021/04/03 21:58:06;;;;;;;11.88;2.97;;;;;;;17.67;32.51;103070.03;5044000;28;20116;-49
2021/04/03 22:00:37;;;;;;;10.57;2.90;;;;;;;17.65;32.53;103069.16;5006935;28;240038;-54
2021/04/03 22:03:10;;;;;;;10.10;3.17;;;;;;;17.64;32.33;103071.91;4979429;28;383005;-47
2021/04/03 22:05:38;;;;;;;7.57;2.97;;;;;;;17.65;32.30;103066.47;5019685;28;20061;-49
2021/04/03 22:08:06;;;;;;;7.80;2.80;;;;;;;17.62;32.22;103066.56;5008958;28;20116;-50
2021/04/03 22:10:32;;;;;;;10.05;3.33;;;;;;;17.59;32.46;103073.84;5015277;28;20034;-50
2021/04/03 22:12:59;;;;;;;9.82;3.20;;;;;;;17.60;32.65;103065.69;5002233;28;20038;-48
2021/04/03 22:15:26;;;;;;;8.75;3.58;;;;;;;17.64;32.48;103066.50;4999165;28;20066;-48
2021/04/03 22:17:52;;;;;;;7.78;2.60;;;;;;;17.69;32.72;103064.56;5000192;28;20034;-51
2021/04/03 22:20:19;;;;;;;8.65;2.85;;;;;;;17.71;32.61;103054.63;5005502;28;20093;-50
2021/04/03 22:22:47;;;;;;;10.90;3.10;;;;;;;17.68;32.58;103057.41;5017776;28;20320;-50
2021/04/03 22:25:14;;;;;;;6.80;2.85;;;;;;;17.64;32.86;103063.81;5008384;28;20502;-50
2021/04/03 22:27:41;;;;;;;7.78;2.92;;;;;;;17.63;32.76;103059.34;5001278;28;20053;-50
2021/04/03 22:30:11;;;;;;;10.30;2.90;;;;;;;17.61;32.58;103056.69;5025275;28;20049;-49
2021/04/03 22:32:38;;;;;;;9.82;3.25;;;;;;;17.65;32.73;103063.78;5006062;28;20034;-47
2021/04/03 22:35:06;;;;;;;8.93;2.65;;;;;;;17.67;32.95;103056.53;5011802;28;20042;-53
2021/04/03 22:37:32;;;;;;;7.15;3.05;;;;;;;17.66;32.76;103061.97;4993190;28;513870;-50
2021/04/03 22:40:00;;;;;;;7.45;3.03;;;;;;;17.69;32.57;103056.47;5028379;28;20548;-59
2021/04/03 22:42:26;;;;;;;8.20;3.00;;;;;;;17.96;32.41;103068.34;5036751;28;20112;-60
2021/04/03 22:44:53;;;;;;;7.80;3.10;;;;;;;17.99;32.40;103059.31;5027249;28;20053;-60
2021/04/03 22:47:20;;;;;;;7.32;2.35;;;;;;;18.00;32.21;103053.84;5032794;28;20030;-60
2021/04/03 22:49:47;;;;;;;10.55;3.08;;;;;;;18.06;32.02;103058.19;5017236;28;20049;-62
2021/04/03 22:52:14;;;;;;;11.20;2.50;;;;;;;18.06;33.22;103052.78;5024871;28;20034;-62
2021/04/03 22:54:41;;;;;;;7.60;2.85;;;;;;;18.04;33.07;103051.94;5018719;28;20034;-61
2021/04/03 22:57:08;;;;;;;9.93;2.92;;;;;;;18.05;33.00;103053.75;5041465;28;20057;-61
2021/04/03 22:59:34;;;;;;;8.68;2.80;;;;;;;18.05;33.05;103048.34;5029305;28;20037;-61
2021/04/03 23:02:02;;;;;;;9.15;2.75;;;;;;;18.07;33.15;103057.28;5024965;28;20042;-65
2021/04/03 23:04:28;;;;;;;8.95;3.38;;;;;;;18.06;33.06;103048.25;5026760;28;20036;-62
2021/04/03 23:06:55;;;;;;;9.90;2.80;;;;;;;18.08;33.11;103048.22;5022009;28;20041;-61
2021/04/03 23:09:24;;;;;;;7.50;3.20;;;;;;;18.06;33.33;103050.97;5027272;28;20061;-61
2021/04/03 23:11:51;;;;;;;7.30;2.85;;;;;;;18.08;33.30;103059.03;5040674;28;20063;-61
2021/04/03 23:14:19;;;;;;;7.78;2.60;;;;;;;18.11;32.80;103054.41;5025436;28;20041;-61
2021/04/03 23:16:46;;;;;;;6.30;3.10;;;;;;;18.12;33.20;103049.91;5046806;28;20047;-61
2021/04/03 23:19:12;;;;;;;7.10;2.90;;;;;;;18.12;33.04;103052.63;5024221;28;20042;-61
2021/04/03 23:21:39;;;;;;;8.05;2.92;;;;;;;18.14;33.31;103058.00;5025169;28;20033;-60
2021/04/03 23:24:06;;;;;;;6.40;2.60;;;;;;;18.11;33.26;103049.00;5024321;28;20029;-60
2021/04/03 23:26:35;;;;;;;7.93;2.95;;;;;;;18.09;33.39;103042.78;5021954;28;20045;-60
2021/04/03 23:29:02;;;;;;;7.20;2.67;;;;;;;18.10;33.14;103038.28;5034048;28;20046;-60
2021/04/03 23:31:30;;;;;;;10.13;2.72;;;;;;;18.11;33.48;103030.09;5036938;28;20069;-60
2021/04/03 23:33:57;;;;;;;9.77;3.28;;;;;;;18.11;33.55;103024.69;5020852;28;20049;-61
2021/04/03 23:36:23;;;;;;;7.85;2.88;;;;;;;18.13;33.45;103035.47;5040892;28;20089;-60
2021/04/03 23:38:50;;;;;;;8.73;2.78;;;;;;;18.14;33.41;103030.97;5018992;28;20033;-60
2021/04/03 23:41:18;;;;;;;7.00;2.80;;;;;;;18.15;33.73;103035.44;5027894;28;20045;-60
2021/04/03 23:43:44;;;;;;;8.20;2.83;;;;;;;18.16;33.20;103037.22;5022278;28;20120;-61
2021/04/03 23:46:11;;;;;;;6.00;2.83;;;;;;;18.16;33.61;103034.50;5033201;28;20041;-61
2021/04/03 23:48:39;;;;;;;9.02;2.83;;;;;;;18.18;33.18;103036.22;5022503;28;20030;-61
2021/04/03 23:51:05;;;;;;;8.75;2.75;;;;;;;18.17;33.38;103030.88;5034346;28;20408;-61
2021/04/03 23:53:33;;;;;;;7.63;2.83;;;;;;;18.16;33.43;103035.38;5021176;28;20076;-60
2021/04/03 23:55:59;;;;;;;8.10;3.13;;;;;;;18.16;33.44;103032.69;5028520;28;20073;-53
2021/04/03 23:58:25;;;;;;;7.65;2.58;;;;;;;18.16;33.63;103027.28;5039592;28;20033;-54
